createdAt,value
2017-07-01T00:01:21.729Z,6.17
2017-07-01T00:03:53.686Z,6.57
2017-07-01T00:06:22.294Z,6.90
2017-07-01T00:08:51.863Z,6.77
2017-07-01T00:11:21.674Z,8.37
2017-07-01T00:13:52.009Z,8.37
2017-07-01T00:16:21.978Z,8.50
2017-07-01T00:18:52.640Z,7.40
2017-07-01T00:21:22.018Z,8.80
2017-07-01T00:23:53.904Z,7.17
2017-07-01T00:26:22.302Z,7.77
2017-07-01T00:28:51.653Z,7.47
2017-07-01T00:31:22.902Z,7.87
2017-07-01T00:33:52.656Z,7.73
2017-07-01T00:36:22.258Z,7.10
2017-07-01T00:38:52.719Z,7.17
2017-07-01T00:41:23.108Z,7.43
2017-07-01T00:43:52.548Z,7.40
2017-07-01T00:46:21.751Z,6.73
2017-07-01T00:48:50.070Z,6.37
2017-07-01T00:51:18.532Z,6.57
2017-07-01T00:53:47.725Z,7.27
2017-07-01T00:56:16.088Z,6.30
2017-07-01T00:58:44.649Z,6.60
2017-07-01T01:01:13.371Z,7.20
2017-07-01T01:03:41.799Z,6.90
2017-07-01T01:06:10.194Z,6.93
2017-07-01T01:08:38.991Z,6.03
2017-07-01T01:11:08.322Z,6.60
2017-07-01T01:13:36.763Z,7.23
2017-07-01T01:16:06.555Z,6.83
2017-07-01T01:18:35.095Z,8.07
2017-07-01T01:21:03.523Z,6.80
2017-07-01T01:23:32.079Z,7.57
2017-07-01T01:26:00.502Z,7.73
2017-07-01T01:28:28.927Z,7.03
2017-07-01T01:30:58.777Z,8.33
2017-07-01T01:33:27.152Z,7.50
2017-07-01T01:35:56.333Z,8.10
2017-07-01T01:38:26.040Z,8.50
2017-07-01T01:40:55.136Z,7.80
2017-07-01T01:43:25.512Z,9.23
2017-07-01T01:45:54.129Z,9.50
2017-07-01T01:48:35.346Z,8.03
2017-07-01T01:51:04.951Z,8.90
2017-07-01T01:53:33.368Z,8.77
2017-07-01T01:56:02.583Z,8.70
2017-07-01T01:58:31.160Z,9.40
2017-07-01T02:01:06.676Z,8.27
2017-07-01T02:03:37.466Z,8.20
2017-07-01T02:06:05.993Z,8.77
2017-07-01T02:08:37.456Z,9.10
2017-07-01T02:11:06.031Z,9.23
2017-07-01T02:13:34.520Z,8.77
2017-07-01T02:16:21.689Z,9.20
2017-07-01T02:18:50.072Z,14.00
2017-07-01T02:21:21.104Z,9.90
2017-07-01T02:23:50.862Z,8.60
2017-07-01T02:26:21.166Z,9.43
2017-07-01T02:28:49.575Z,9.87
2017-07-01T02:31:18.352Z,9.17
2017-07-01T02:34:23.984Z,10.03
2017-07-01T02:36:54.418Z,10.23
2017-07-01T02:39:37.165Z,10.33
2017-07-01T02:42:06.197Z,10.00
2017-07-01T02:44:34.820Z,11.40
2017-07-01T02:47:09.366Z,11.60
2017-07-01T02:49:42.635Z,11.20
2017-07-01T02:52:33.276Z,10.50
2017-07-01T02:55:22.334Z,10.90
2017-07-01T02:57:50.905Z,11.40
2017-07-01T03:00:19.297Z,10.27
2017-07-01T03:02:52.098Z,10.60
2017-07-01T03:05:21.668Z,10.90
2017-07-01T03:07:50.144Z,11.30
2017-07-01T03:10:18.947Z,12.23
2017-07-01T03:12:47.330Z,11.70
2017-07-01T03:15:17.524Z,12.17
2017-07-01T03:17:46.234Z,12.10
2017-07-01T03:20:25.380Z,13.57
2017-07-01T03:23:14.933Z,14.47
2017-07-01T03:26:01.119Z,13.53
2017-07-01T03:28:30.201Z,14.10
2017-07-01T03:30:58.568Z,13.70
2017-07-01T03:33:26.947Z,14.00
2017-07-01T03:35:56.554Z,13.30
2017-07-01T03:38:46.544Z,13.50
2017-07-01T03:41:38.728Z,14.70
2017-07-01T03:44:37.134Z,14.43
2017-07-01T03:47:05.870Z,14.57
2017-07-01T03:49:40.877Z,15.70
2017-07-01T03:52:09.585Z,13.80
2017-07-01T03:54:39.675Z,14.80
2017-07-01T03:57:08.323Z,14.20
2017-07-01T03:59:38.283Z,13.90
2017-07-01T04:02:06.791Z,13.03
2017-07-01T04:04:38.913Z,14.47
2017-07-01T04:07:07.778Z,16.23
2017-07-01T04:09:36.265Z,13.40
2017-07-01T04:12:04.745Z,14.70
2017-07-01T04:14:34.598Z,14.53
2017-07-01T04:17:06.945Z,15.17
2017-07-01T04:19:44.949Z,13.70
2017-07-01T04:22:13.503Z,13.13
2017-07-01T04:24:42.704Z,11.40
2017-07-01T04:27:11.312Z,14.00
2017-07-01T04:29:39.741Z,13.47
2017-07-01T04:32:08.999Z,12.00
2017-07-01T04:34:38.709Z,11.17
2017-07-01T04:37:07.136Z,12.33
2017-07-01T04:39:35.755Z,9.60
2017-07-01T04:42:21.357Z,10.13
2017-07-01T04:45:09.384Z,11.80
2017-07-01T04:47:49.012Z,10.70
2017-07-01T04:50:17.413Z,10.20
2017-07-01T04:52:46.296Z,9.70
2017-07-01T04:55:15.951Z,9.37
2017-07-01T04:58:00.803Z,9.37
2017-07-01T05:00:34.917Z,8.30
2017-07-01T05:03:03.286Z,8.70
2017-07-01T05:05:57.750Z,7.63
2017-07-01T05:08:29.857Z,7.70
2017-07-01T05:10:58.628Z,8.37
2017-07-01T05:13:27.243Z,8.23
2017-07-01T05:15:57.725Z,7.57
2017-07-01T05:18:26.727Z,7.50
2017-07-01T05:20:56.947Z,6.40
2017-07-01T05:23:53.323Z,7.00
2017-07-01T05:26:21.876Z,6.80
2017-07-01T05:28:50.408Z,7.33
2017-07-01T05:31:25.195Z,8.40
2017-07-01T05:33:54.336Z,3.83
2017-07-01T05:36:35.627Z,3.40
2017-07-01T05:39:23.187Z,3.10
2017-07-01T05:42:12.400Z,3.20
2017-07-01T05:44:46.728Z,2.70
2017-07-01T05:47:17.605Z,2.53
2017-07-01T05:49:46.351Z,2.47
2017-07-01T05:52:14.836Z,2.80
2017-07-01T05:54:43.622Z,2.30
2017-07-01T05:57:12.026Z,2.07
2017-07-01T05:59:42.453Z,2.57
2017-07-01T06:02:27.911Z,2.40
2017-07-01T06:04:57.072Z,1.63
2017-07-01T06:07:25.681Z,1.70
2017-07-01T06:10:10.969Z,2.07
2017-07-01T06:12:44.366Z,2.03
2017-07-01T06:15:29.609Z,3.27
2017-07-01T06:17:58.081Z,4.10
2017-07-01T06:20:35.541Z,3.93
2017-07-01T06:23:03.942Z,3.77
2017-07-01T06:25:33.065Z,3.33
2017-07-01T06:28:04.601Z,3.87
2017-07-01T06:30:45.031Z,3.97
2017-07-01T06:33:14.140Z,3.73
2017-07-01T06:35:52.123Z,3.50
2017-07-01T06:38:36.582Z,4.07
2017-07-01T06:41:25.611Z,3.97
2017-07-01T06:44:12.764Z,4.50
2017-07-01T06:46:57.792Z,4.53
2017-07-01T06:49:26.475Z,4.37
2017-07-01T06:52:06.380Z,5.17
2017-07-01T06:54:35.219Z,6.30
2017-07-01T06:57:03.632Z,5.50
2017-07-01T06:59:32.181Z,5.53
2017-07-01T07:02:00.883Z,5.00
2017-07-01T07:04:35.232Z,3.20
2017-07-01T07:07:04.444Z,3.87
2017-07-01T07:09:33.836Z,3.80
2017-07-01T07:12:02.224Z,2.93
2017-07-01T07:14:30.889Z,3.50
2017-07-01T07:16:59.276Z,4.03
2017-07-01T07:19:27.732Z,3.07
2017-07-01T07:21:57.936Z,4.40
2017-07-01T07:24:26.445Z,3.37
2017-07-01T07:26:54.837Z,2.13
2017-07-01T07:29:23.582Z,1.87
2017-07-01T07:31:51.987Z,2.97
2017-07-01T07:34:20.358Z,1.70
2017-07-01T07:36:50.149Z,1.73
2017-07-01T07:39:18.592Z,2.30
2017-07-01T07:41:46.940Z,2.50
2017-07-01T07:44:15.613Z,1.40
2017-07-01T07:46:44.996Z,2.47
2017-07-01T07:49:13.400Z,2.10
2017-07-01T07:51:43.449Z,1.77
2017-07-01T07:54:12.172Z,2.90
2017-07-01T07:56:40.501Z,2.90
2017-07-01T07:59:10.391Z,3.00
2017-07-01T08:01:39.005Z,3.03
2017-07-01T08:04:07.425Z,3.10
2017-07-01T08:06:36.125Z,4.20
2017-07-01T08:09:04.575Z,4.67
2017-07-01T08:11:33.017Z,4.83
2017-07-01T08:14:01.721Z,4.27
2017-07-01T08:16:30.062Z,4.40
2017-07-01T08:18:58.420Z,5.43
2017-07-01T08:21:27.104Z,7.20
2017-07-01T08:23:55.448Z,5.20
2017-07-01T08:26:23.835Z,5.73
2017-07-01T08:28:52.389Z,5.40
2017-07-01T08:31:20.784Z,6.23
2017-07-01T08:33:49.157Z,5.43
2017-07-01T08:36:17.939Z,6.30
2017-07-01T08:38:46.428Z,6.67
2017-07-01T08:41:15.560Z,7.40
2017-07-01T08:43:45.127Z,7.17
2017-07-01T08:46:13.674Z,7.27
2017-07-01T08:48:42.093Z,7.03
2017-07-01T08:51:10.721Z,7.53
2017-07-01T08:53:40.229Z,7.90
2017-07-01T08:56:08.736Z,7.93
2017-07-01T08:58:38.299Z,6.60
2017-07-01T09:01:06.794Z,8.43
2017-07-01T09:03:35.322Z,8.60
2017-07-01T09:06:04.969Z,7.90
2017-07-01T09:08:33.448Z,8.60
2017-07-01T09:11:01.827Z,8.43
2017-07-01T09:13:30.703Z,8.57
2017-07-01T09:15:59.220Z,7.00
2017-07-01T09:18:27.634Z,8.03
2017-07-01T09:21:00.245Z,8.60
2017-07-01T09:23:28.613Z,8.00
2017-07-01T09:25:57.039Z,7.80
2017-07-01T09:28:26.167Z,7.90
2017-07-01T09:30:59.903Z,7.50
2017-07-01T09:33:28.572Z,7.93
2017-07-01T09:35:57.873Z,6.77
2017-07-01T09:38:26.290Z,7.80
2017-07-01T09:40:55.948Z,8.30
2017-07-01T09:43:25.385Z,8.50
2017-07-01T09:45:53.786Z,5.83
2017-07-01T09:48:22.707Z,7.57
2017-07-01T09:50:51.867Z,7.50
2017-07-01T09:53:20.290Z,7.00
2017-07-01T09:55:48.884Z,5.73
2017-07-01T09:58:17.350Z,7.77
2017-07-01T10:00:45.871Z,7.37
2017-07-01T10:03:15.404Z,7.83
2017-07-01T10:05:43.896Z,7.50
2017-07-01T10:08:12.372Z,7.60
2017-07-01T10:10:42.728Z,8.60
2017-07-01T10:13:11.166Z,8.07
2017-07-01T10:15:39.566Z,8.60
2017-07-01T10:18:08.458Z,7.50
2017-07-01T10:20:37.051Z,7.70
2017-07-01T10:23:05.624Z,7.40
2017-07-01T10:25:34.877Z,7.23
2017-07-01T10:28:03.292Z,6.37
2017-07-01T10:30:31.674Z,7.07
2017-07-01T10:33:00.368Z,6.03
2017-07-01T10:35:28.767Z,7.53
2017-07-01T10:37:57.924Z,7.57
2017-07-01T10:40:27.398Z,7.80
2017-07-01T10:42:55.740Z,6.90
2017-07-01T10:45:24.104Z,7.67
2017-07-01T10:47:52.993Z,7.50
2017-07-01T10:50:21.348Z,7.80
2017-07-01T10:52:51.400Z,8.03
2017-07-01T10:55:20.361Z,8.67
2017-07-01T10:57:49.665Z,8.70
2017-07-01T11:00:18.242Z,6.33
2017-07-01T11:02:47.497Z,8.13
2017-07-01T11:05:15.916Z,7.27
2017-07-01T11:07:44.383Z,6.53
2017-07-01T11:10:12.906Z,5.50
2017-07-01T11:12:42.493Z,5.87
2017-07-01T11:15:10.868Z,5.97
2017-07-01T11:17:40.887Z,6.10
2017-07-01T11:20:09.439Z,5.90
2017-07-01T11:22:38.209Z,5.83
2017-07-01T11:25:07.252Z,6.60
2017-07-01T11:27:36.124Z,6.10
2017-07-01T11:30:04.825Z,5.57
2017-07-01T11:32:34.681Z,5.90
2017-07-01T11:35:03.962Z,6.33
2017-07-01T11:37:33.261Z,6.07
2017-07-01T11:40:02.044Z,3.63
2017-07-01T11:42:30.404Z,5.67
2017-07-01T11:44:58.885Z,4.77
2017-07-01T11:47:27.361Z,4.97
2017-07-01T11:49:55.737Z,4.90
2017-07-01T11:52:24.102Z,4.37
2017-07-01T11:54:52.548Z,4.00
2017-07-01T11:57:20.984Z,4.13
2017-07-01T11:59:49.412Z,5.40
2017-07-01T12:02:18.170Z,5.00
2017-07-01T12:04:46.685Z,5.27
2017-07-01T12:07:15.165Z,4.77
2017-07-01T12:09:43.700Z,5.33
2017-07-01T12:12:12.116Z,5.20
2017-07-01T12:14:40.494Z,5.13
2017-07-01T12:17:09.692Z,4.43
2017-07-01T12:19:38.256Z,5.67
2017-07-01T12:22:06.840Z,4.17
2017-07-01T12:24:36.681Z,5.27
2017-07-01T12:27:06.232Z,4.60
2017-07-01T12:29:35.606Z,4.37
2017-07-01T12:32:04.369Z,4.60
2017-07-01T12:34:32.771Z,4.93
2017-07-01T12:37:02.049Z,4.40
2017-07-01T12:39:30.440Z,3.90
2017-07-01T12:41:58.827Z,5.20
2017-07-01T12:44:27.365Z,4.50
2017-07-01T12:46:56.231Z,4.33
2017-07-01T12:49:24.610Z,4.33
2017-07-01T12:51:53.999Z,4.13
2017-07-01T12:54:22.659Z,4.80
2017-07-01T12:56:51.113Z,4.33
2017-07-01T12:59:19.654Z,4.30
2017-07-01T13:01:49.673Z,4.40
2017-07-01T13:04:18.105Z,4.00
2017-07-01T13:06:47.295Z,3.63
2017-07-01T13:09:16.219Z,4.07
2017-07-01T13:11:44.725Z,3.97
2017-07-01T13:14:13.924Z,4.00
2017-07-01T13:16:43.492Z,3.30
2017-07-01T13:19:12.676Z,3.70
2017-07-01T13:21:41.149Z,4.47
2017-07-01T13:24:10.859Z,4.20
2017-07-01T13:26:41.374Z,3.70
2017-07-01T13:29:09.853Z,3.60
2017-07-01T13:31:38.701Z,4.50
2017-07-01T13:34:07.258Z,4.13
2017-07-01T13:36:35.867Z,4.47
2017-07-01T13:39:04.715Z,3.30
2017-07-01T13:41:33.915Z,4.50
2017-07-01T13:44:02.311Z,3.83
2017-07-01T13:46:30.977Z,4.03
2017-07-01T13:48:59.311Z,4.33
2017-07-01T13:51:27.689Z,4.80
2017-07-01T13:53:56.599Z,4.00
2017-07-01T13:56:25.042Z,3.53
2017-07-01T13:58:53.450Z,4.30
2017-07-01T14:01:22.188Z,3.93
2017-07-01T14:03:50.669Z,4.07
2017-07-01T14:06:19.189Z,3.83
2017-07-01T14:08:47.793Z,3.90
2017-07-01T14:11:16.182Z,4.57
2017-07-01T14:13:44.668Z,4.27
2017-07-01T14:16:15.060Z,4.20
2017-07-01T14:18:43.673Z,3.73
2017-07-01T14:21:12.083Z,4.40
2017-07-01T14:23:41.620Z,4.03
2017-07-01T14:26:10.875Z,3.80
2017-07-01T14:28:40.136Z,3.60
2017-07-01T14:31:08.917Z,4.47
2017-07-01T14:33:37.356Z,4.00
2017-07-01T14:36:06.765Z,3.60
2017-07-01T14:38:36.160Z,3.73
2017-07-01T14:41:05.036Z,4.03
2017-07-01T14:43:33.369Z,5.03
2017-07-01T14:46:01.949Z,4.70
2017-07-01T14:48:30.421Z,4.50
2017-07-01T14:50:58.753Z,4.97
2017-07-01T14:53:27.133Z,4.27
2017-07-01T14:55:56.462Z,4.97
2017-07-01T14:58:25.593Z,4.30
2017-07-01T15:00:54.279Z,4.73
2017-07-01T15:03:22.585Z,4.40
2017-07-01T15:05:51.840Z,3.63
2017-07-01T15:08:20.424Z,3.63
2017-07-01T15:10:48.770Z,3.80
2017-07-01T15:13:17.123Z,3.70
2017-07-01T15:15:45.783Z,4.43
2017-07-01T15:18:14.303Z,4.43
2017-07-01T15:20:44.011Z,3.77
2017-07-01T15:23:12.697Z,3.77
2017-07-01T15:25:41.109Z,4.00
2017-07-01T15:28:09.578Z,4.97
2017-07-01T15:30:38.406Z,5.27
2017-07-01T15:33:07.859Z,7.90
2017-07-01T15:35:36.369Z,4.30
2017-07-01T15:38:05.132Z,6.20
2017-07-01T15:40:33.528Z,6.47
2017-07-01T15:43:01.890Z,3.80
2017-07-01T15:45:31.284Z,5.17
2017-07-01T15:47:59.910Z,5.67
2017-07-01T15:50:28.467Z,4.60
2017-07-01T15:52:57.499Z,5.00
2017-07-01T15:55:25.847Z,4.77
2017-07-01T15:57:54.257Z,4.20
2017-07-01T16:00:35.382Z,4.70
2017-07-01T16:03:03.804Z,4.97
2017-07-01T16:05:37.755Z,5.00
2017-07-01T16:08:06.259Z,7.00
2017-07-01T16:10:34.627Z,4.70
2017-07-01T16:13:03.442Z,6.20
2017-07-01T16:15:31.752Z,7.57
2017-07-01T16:18:00.108Z,6.93
2017-07-01T16:20:28.693Z,5.00
2017-07-01T16:22:57.057Z,5.23
2017-07-01T16:25:26.422Z,5.77
2017-07-01T16:27:55.045Z,7.40
2017-07-01T16:30:23.403Z,5.70
2017-07-01T16:32:51.760Z,7.03
2017-07-01T16:35:20.623Z,7.20
2017-07-01T16:37:50.915Z,4.90
2017-07-01T16:40:19.303Z,7.17
2017-07-01T16:42:49.108Z,6.70
2017-07-01T16:45:17.518Z,8.27
2017-07-01T16:47:46.862Z,8.77
2017-07-01T16:50:15.390Z,5.30
2017-07-01T16:52:43.995Z,5.27
2017-07-01T16:55:12.441Z,4.80
2017-07-01T16:57:41.829Z,6.57
2017-07-01T17:00:10.219Z,4.60
2017-07-01T17:02:38.907Z,4.30
2017-07-01T17:05:09.363Z,6.10
2017-07-01T17:07:38.227Z,4.53
2017-07-01T17:10:07.554Z,5.87
2017-07-01T17:12:36.950Z,17.93
2017-07-01T17:15:05.404Z,4.87
2017-07-01T17:17:33.856Z,4.57
2017-07-01T17:20:02.773Z,4.83
2017-07-01T17:22:32.226Z,4.83
2017-07-01T17:25:03.098Z,5.47
2017-07-01T17:27:36.949Z,4.20
2017-07-01T17:30:05.530Z,5.83
2017-07-01T17:32:33.911Z,4.70
2017-07-01T17:35:04.070Z,4.80
2017-07-01T17:37:35.554Z,4.57
2017-07-01T17:40:04.007Z,4.23
2017-07-01T17:42:32.738Z,4.40
2017-07-01T17:45:01.091Z,5.13
2017-07-01T17:47:29.450Z,4.57
2017-07-01T17:49:58.019Z,5.07
2017-07-01T17:52:26.561Z,4.10
2017-07-01T17:54:55.913Z,5.00
2017-07-01T17:57:24.588Z,4.37
2017-07-01T17:59:52.987Z,5.30
2017-07-01T18:02:21.370Z,6.00
2017-07-01T18:04:50.054Z,5.53
2017-07-01T18:07:18.454Z,5.37
2017-07-01T18:09:47.448Z,6.17
2017-07-01T18:12:17.335Z,6.83
2017-07-01T18:14:45.905Z,5.57
2017-07-01T18:17:14.396Z,7.30
2017-07-01T18:19:44.297Z,5.57
2017-07-01T18:22:12.631Z,5.30
2017-07-01T18:24:41.047Z,6.10
2017-07-01T18:27:12.686Z,7.43
2017-07-01T18:29:41.337Z,5.57
2017-07-01T18:32:10.096Z,5.07
2017-07-01T18:34:39.698Z,5.23
2017-07-01T18:37:08.878Z,5.80
2017-07-01T18:39:37.730Z,4.87
2017-07-01T18:42:07.331Z,4.50
2017-07-01T18:44:37.178Z,4.77
2017-07-01T18:47:06.548Z,5.07
2017-07-01T18:49:36.598Z,5.20
2017-07-01T18:52:05.384Z,6.50
2017-07-01T18:54:33.785Z,5.37
2017-07-01T18:57:02.612Z,6.40
2017-07-01T18:59:31.951Z,5.77
2017-07-01T19:02:00.359Z,5.80
2017-07-01T19:04:29.024Z,5.00
2017-07-01T19:06:57.443Z,3.97
2017-07-01T19:09:25.813Z,4.90
2017-07-01T19:11:54.195Z,5.10
2017-07-01T19:14:25.294Z,5.00
2017-07-01T19:16:53.822Z,5.27
2017-07-01T19:19:23.234Z,5.33
2017-07-01T19:21:54.375Z,6.03
2017-07-01T19:24:22.762Z,4.87
2017-07-01T19:26:51.993Z,5.30
2017-07-01T19:29:20.360Z,5.10
2017-07-01T19:31:48.742Z,5.90
2017-07-01T19:34:17.473Z,5.37
2017-07-01T19:36:46.848Z,4.60
2017-07-01T19:39:15.223Z,4.60
2017-07-01T19:41:44.013Z,4.60
2017-07-01T19:44:13.241Z,4.80
2017-07-01T19:46:41.722Z,5.37
2017-07-01T19:49:10.222Z,4.60
2017-07-01T19:51:40.014Z,3.67
2017-07-01T19:54:08.424Z,4.70
2017-07-01T19:56:37.535Z,5.30
2017-07-01T19:59:06.331Z,5.43
2017-07-01T20:01:34.767Z,4.77
2017-07-01T20:04:03.451Z,4.93
2017-07-01T20:06:33.131Z,4.87
2017-07-01T20:09:01.564Z,4.60
2017-07-01T20:11:30.089Z,6.03
2017-07-01T20:13:59.056Z,6.67
2017-07-01T20:16:28.318Z,7.20
2017-07-01T20:18:57.583Z,9.23
2017-07-01T20:21:25.967Z,7.30
2017-07-01T20:23:54.409Z,6.70
2017-07-01T20:26:23.289Z,6.47
2017-07-01T20:28:51.811Z,6.77
2017-07-01T20:31:20.217Z,7.13
2017-07-01T20:33:49.556Z,6.50
2017-07-01T20:36:24.575Z,6.57
2017-07-01T20:38:55.075Z,7.77
2017-07-01T20:41:23.412Z,5.93
2017-07-01T20:43:51.850Z,6.37
2017-07-01T20:46:20.537Z,7.73
2017-07-01T20:48:48.945Z,6.07
2017-07-01T20:51:17.431Z,6.17
2017-07-01T20:53:46.149Z,5.57
2017-07-01T20:56:14.682Z,6.70
2017-07-01T20:58:43.101Z,7.17
2017-07-01T21:01:12.067Z,7.07
2017-07-01T21:03:40.462Z,7.47
2017-07-01T21:06:09.171Z,6.80
2017-07-01T21:08:37.738Z,8.30
2017-07-01T21:11:06.375Z,8.80
2017-07-01T21:13:34.801Z,8.23
2017-07-01T21:16:03.747Z,8.13
2017-07-01T21:18:32.993Z,8.07
2017-07-01T21:21:01.397Z,9.00
2017-07-01T21:23:30.091Z,9.07
2017-07-01T21:25:58.523Z,10.97
2017-07-01T21:28:26.842Z,10.97
2017-07-01T21:30:55.733Z,10.63
2017-07-01T21:33:24.111Z,9.87
2017-07-01T21:35:52.455Z,9.57
2017-07-01T21:38:26.880Z,10.80
2017-07-01T21:40:55.267Z,8.67
2017-07-01T21:43:24.639Z,9.97
2017-07-01T21:45:53.191Z,10.73
2017-07-01T21:48:21.612Z,9.40
2017-07-01T21:50:49.973Z,10.23
2017-07-01T21:53:19.404Z,12.77
2017-07-01T21:55:49.056Z,9.90
2017-07-01T21:58:17.465Z,13.03
2017-07-01T22:00:46.748Z,12.47
2017-07-01T22:03:15.148Z,11.00
2017-07-01T22:05:43.724Z,9.87
2017-07-01T22:08:12.481Z,10.93
2017-07-01T22:10:41.916Z,10.33
2017-07-01T22:13:10.638Z,12.30
2017-07-01T22:15:39.370Z,13.47
2017-07-01T22:18:07.758Z,9.87
2017-07-01T22:20:36.471Z,10.60
2017-07-01T22:23:05.227Z,10.43
2017-07-01T22:25:34.629Z,9.63
2017-07-01T22:28:02.989Z,10.90
2017-07-01T22:30:31.521Z,9.30
2017-07-01T22:32:59.944Z,9.80
2017-07-01T22:35:28.297Z,10.97
2017-07-01T22:37:57.120Z,11.23
2017-07-01T22:40:27.467Z,10.90
2017-07-01T22:42:55.846Z,10.67
2017-07-01T22:45:24.428Z,12.00
2017-07-01T22:48:00.306Z,11.50
2017-07-01T22:50:29.719Z,9.50
2017-07-01T22:52:58.109Z,10.87
2017-07-01T22:55:26.478Z,12.10
2017-07-01T22:57:56.174Z,10.60
2017-07-01T23:00:24.549Z,12.83
2017-07-01T23:02:53.887Z,11.33
2017-07-01T23:05:22.674Z,11.10
2017-07-01T23:07:51.213Z,11.30
2017-07-01T23:10:19.665Z,8.70
2017-07-01T23:12:48.747Z,11.67
2017-07-01T23:15:17.127Z,10.50
2017-07-01T23:17:45.581Z,10.83
2017-07-01T23:20:14.977Z,10.43
2017-07-01T23:22:44.225Z,10.07
2017-07-01T23:25:12.655Z,9.97
2017-07-01T23:27:41.111Z,9.53
2017-07-01T23:30:09.569Z,9.60
2017-07-01T23:32:38.056Z,10.03
2017-07-01T23:35:07.705Z,8.00
2017-07-01T23:37:36.340Z,11.40
2017-07-01T23:40:05.880Z,9.47
2017-07-01T23:42:37.256Z,8.60
2017-07-01T23:45:05.733Z,9.50
2017-07-01T23:47:34.125Z,8.60
2017-07-01T23:50:03.691Z,9.43
2017-07-01T23:52:33.024Z,8.20
2017-07-01T23:55:02.538Z,9.20
2017-07-01T23:57:30.928Z,7.97
2017-07-01T23:59:59.295Z,7.20
